Time;durP1;ratioP1;P1;durP2;ratioP2;P2;SDS_P1;SDS_P2;PMS_P1;PMS_P2;Temp;Humidity;BMP_temperature;BMP_pressure;BME280_temperature;BME280_humidity;BME280_pressure;Samples;Min_cycle;Max_cycle;Signal;HPM_P1;HPM_P2
2022/07/24 00:02:09;;;;;;;6.43;2.25;;;18.40;99.90;;;;;;4987349;28;20419;-60
2022/07/24 00:04:35;;;;;;;4.90;1.98;;;18.40;99.90;;;;;;4989436;28;20117;-60
2022/07/24 00:07:00;;;;;;;4.97;2.45;;;18.40;99.90;;;;;;5000406;28;20438;-59
2022/07/24 00:09:26;;;;;;;2.60;1.90;;;18.40;99.90;;;;;;4998744;28;20030;-59
2022/07/24 00:11:52;;;;;;;6.60;2.20;;;18.40;99.90;;;;;;4995348;28;20031;-60
2022/07/24 00:14:18;;;;;;;4.53;1.88;;;18.40;99.90;;;;;;4999776;28;20169;-59
2022/07/24 00:16:43;;;;;;;5.47;1.60;;;18.40;99.90;;;;;;5004616;28;20105;-60
2022/07/24 00:19:09;;;;;;;4.80;1.95;;;18.50;99.90;;;;;;4992094;28;20050;-60
2022/07/24 00:21:35;;;;;;;5.20;1.95;;;18.50;99.90;;;;;;4988208;28;20356;-60
2022/07/24 00:24:01;;;;;;;3.67;1.90;;;18.40;99.90;;;;;;5001788;28;20038;-60
2022/07/24 00:26:27;;;;;;;4.07;2.20;;;18.40;99.90;;;;;;4998852;28;20044;-60
2022/07/24 00:28:52;;;;;;;5.57;1.75;;;18.40;99.90;;;;;;4979516;28;20065;-60
2022/07/24 00:31:18;;;;;;;4.07;2.10;;;18.40;99.90;;;;;;4996864;28;20027;-60
2022/07/24 00:33:44;;;;;;;2.65;2.15;;;18.30;99.90;;;;;;4993911;28;20402;-60
2022/07/24 00:36:11;;;;;;;6.57;2.00;;;18.30;99.90;;;;;;5001034;28;20028;-60
2022/07/24 00:38:37;;;;;;;5.47;2.30;;;18.30;99.90;;;;;;4992973;28;20112;-60
2022/07/24 00:41:03;;;;;;;8.45;2.10;;;18.20;99.90;;;;;;4998873;28;20057;-59
2022/07/24 00:43:28;;;;;;;3.33;1.95;;;18.30;99.90;;;;;;4989804;28;20085;-60
2022/07/24 00:45:54;;;;;;;4.55;2.05;;;18.30;99.90;;;;;;4993672;28;20030;-60
2022/07/24 00:48:19;;;;;;;3.67;2.05;;;18.20;99.90;;;;;;4991196;28;20029;-59
2022/07/24 00:50:46;;;;;;;4.85;2.08;;;18.30;99.90;;;;;;4992459;28;20030;-60
2022/07/24 00:53:12;;;;;;;6.63;2.35;;;18.20;99.90;;;;;;5000833;28;20050;-60
2022/07/24 00:55:38;;;;;;;2.47;1.88;;;18.20;99.90;;;;;;4998125;28;20048;-61
2022/07/24 00:58:04;;;;;;;4.35;2.22;;;18.20;99.90;;;;;;4992799;28;20037;-60
2022/07/24 01:00:30;;;;;;;4.15;2.30;;;18.20;99.90;;;;;;5003084;28;20031;-60
2022/07/24 01:02:55;;;;;;;3.78;1.88;;;18.10;99.90;;;;;;5003989;28;20113;-60
2022/07/24 01:05:21;;;;;;;2.28;1.98;;;18.20;99.90;;;;;;5000308;28;20029;-60
2022/07/24 01:07:46;;;;;;;3.20;1.90;;;18.10;99.90;;;;;;4990566;28;20034;-60
2022/07/24 01:10:12;;;;;;;4.20;2.20;;;18.00;99.90;;;;;;4991168;28;20061;-60
2022/07/24 01:12:39;;;;;;;3.35;1.98;;;18.00;99.90;;;;;;4987028;28;20049;-59
2022/07/24 01:15:08;;;;;;;3.90;2.13;;;17.90;99.90;;;;;;4991772;28;20035;-60
2022/07/24 01:17:37;;;;;;;3.88;2.10;;;17.90;99.90;;;;;;4993512;28;20023;-60
2022/07/24 01:20:05;;;;;;;5.47;2.13;;;17.80;99.90;;;;;;4990618;28;20561;-60
2022/07/24 01:22:30;;;;;;;5.00;2.15;;;17.80;99.90;;;;;;4999650;28;20037;-61
2022/07/24 01:24:56;;;;;;;5.15;2.05;;;17.70;99.90;;;;;;4996764;28;20026;-59
2022/07/24 01:27:23;;;;;;;2.85;1.88;;;17.70;99.90;;;;;;4992934;28;20038;-60
2022/07/24 01:29:49;;;;;;;4.80;2.20;;;17.70;99.90;;;;;;5006766;28;20075;-59
2022/07/24 01:32:15;;;;;;;3.90;1.77;;;17.70;99.90;;;;;;4998292;28;20080;-59
2022/07/24 01:34:41;;;;;;;3.35;2.15;;;17.60;99.90;;;;;;4997489;28;20466;-59
2022/07/24 01:37:07;;;;;;;2.65;1.98;;;17.60;99.90;;;;;;4995907;28;20050;-59
2022/07/24 01:39:33;;;;;;;5.78;1.67;;;17.60;99.90;;;;;;4997937;28;20045;-59
2022/07/24 01:41:58;;;;;;;4.75;2.92;;;17.60;99.90;;;;;;4993946;28;20033;-60
2022/07/24 01:44:24;;;;;;;4.88;2.30;;;17.50;99.90;;;;;;5003963;28;20042;-60
2022/07/24 01:46:50;;;;;;;3.20;1.90;;;17.50;99.90;;;;;;4995579;28;20030;-60
2022/07/24 01:49:16;;;;;;;5.25;2.65;;;17.50;99.90;;;;;;4994055;28;20092;-60
2022/07/24 01:51:41;;;;;;;3.92;2.60;;;17.50;99.90;;;;;;4995682;28;20487;-60
2022/07/24 01:54:07;;;;;;;4.00;2.50;;;17.40;99.90;;;;;;4995116;28;20474;-60
2022/07/24 01:56:33;;;;;;;6.72;2.55;;;17.40;99.90;;;;;;4998418;28;20038;-59
2022/07/24 01:58:59;;;;;;;4.25;2.17;;;17.40;99.90;;;;;;4999284;28;20064;-60
2022/07/24 02:01:27;;;;;;;4.07;2.30;;;17.40;99.90;;;;;;5008249;28;20022;-61
2022/07/24 02:03:53;;;;;;;6.65;2.20;;;17.30;99.90;;;;;;5003436;28;20034;-60
2022/07/24 02:06:19;;;;;;;7.20;2.35;;;17.30;99.90;;;;;;4994675;28;20022;-60
2022/07/24 02:08:45;;;;;;;2.50;2.30;;;17.30;99.90;;;;;;5001754;28;20025;-60
2022/07/24 02:11:11;;;;;;;3.08;2.22;;;17.30;99.90;;;;;;5001422;28;20034;-60
2022/07/24 02:13:37;;;;;;;3.55;2.20;;;17.30;99.90;;;;;;4991994;28;20422;-60
2022/07/24 02:16:03;;;;;;;5.18;2.25;;;17.30;99.90;;;;;;4997078;28;20415;-59
2022/07/24 02:18:29;;;;;;;3.38;2.00;;;17.30;99.90;;;;;;5005787;28;20030;-59
2022/07/24 02:20:55;;;;;;;7.18;2.15;;;17.20;99.90;;;;;;4993645;28;20022;-60
2022/07/24 02:23:21;;;;;;;4.88;2.35;;;17.20;99.90;;;;;;4996572;28;20029;-60
2022/07/24 02:25:48;;;;;;;3.22;2.03;;;17.20;99.90;;;;;;4998425;28;20508;-60
2022/07/24 02:28:15;;;;;;;5.18;2.50;;;17.20;99.90;;;;;;4984362;28;20057;-59
2022/07/24 02:30:41;;;;;;;4.57;2.15;;;17.20;99.90;;;;;;4994245;28;20032;-60
2022/07/24 02:33:07;;;;;;;5.03;2.00;;;17.30;99.90;;;;;;4998683;28;20034;-60
2022/07/24 02:35:33;;;;;;;2.70;1.92;;;17.30;99.90;;;;;;4996308;28;20030;-60
2022/07/24 02:37:59;;;;;;;3.78;2.20;;;17.40;99.90;;;;;;4996968;28;20076;-60
2022/07/24 02:40:24;;;;;;;3.20;2.38;;;17.40;99.90;;;;;;5008589;28;20029;-59
2022/07/24 02:42:50;;;;;;;4.18;2.22;;;17.50;99.90;;;;;;4986492;28;20060;-59
2022/07/24 02:45:16;;;;;;;8.35;2.20;;;17.50;99.90;;;;;;4992576;28;20114;-59
2022/07/24 02:47:49;;;;;;;4.28;2.20;;;17.50;99.90;;;;;;4994044;28;20034;-60
2022/07/24 02:50:16;;;;;;;7.50;2.28;;;17.50;99.90;;;;;;5004402;28;20035;-59
2022/07/24 02:52:42;;;;;;;8.25;2.10;;;17.50;99.90;;;;;;5001019;28;20133;-59
2022/07/24 02:55:09;;;;;;;3.42;2.20;;;17.50;99.90;;;;;;4992020;28;20053;-60
2022/07/24 02:57:35;;;;;;;4.40;2.20;;;17.40;99.90;;;;;;4994747;28;20034;-60
2022/07/24 03:00:02;;;;;;;5.40;2.42;;;17.40;99.90;;;;;;4997833;28;20383;-60
2022/07/24 03:02:28;;;;;;;5.20;1.92;;;17.40;99.90;;;;;;4989272;28;20165;-59
2022/07/24 03:04:53;;;;;;;5.68;2.30;;;17.40;99.90;;;;;;4993416;28;20457;-61
2022/07/24 03:07:19;;;;;;;4.63;2.53;;;17.30;99.90;;;;;;5003365;28;20044;-60
2022/07/24 03:09:45;;;;;;;4.03;2.40;;;17.40;99.90;;;;;;4993156;28;20109;-59
2022/07/24 03:12:10;;;;;;;7.70;3.13;;;17.40;99.90;;;;;;4990626;28;20046;-60
2022/07/24 03:14:37;;;;;;;5.13;1.95;;;17.40;99.90;;;;;;4997831;28;20073;-60
2022/07/24 03:17:03;;;;;;;3.92;2.28;;;17.40;99.90;;;;;;4990479;28;20053;-60
2022/07/24 03:19:29;;;;;;;4.07;2.08;;;17.30;99.90;;;;;;4991604;28;20027;-60
2022/07/24 03:21:55;;;;;;;3.50;2.42;;;17.30;99.90;;;;;;4993583;28;20033;-60
2022/07/24 03:24:20;;;;;;;4.93;2.00;;;17.30;99.90;;;;;;4989136;28;20026;-60
2022/07/24 03:26:46;;;;;;;3.72;2.20;;;17.30;99.90;;;;;;4996823;28;20578;-59
2022/07/24 03:29:12;;;;;;;5.82;2.10;;;17.30;99.90;;;;;;4991120;28;20034;-60
2022/07/24 03:31:37;;;;;;;5.35;2.35;;;17.30;99.90;;;;;;4992446;28;20031;-59
2022/07/24 03:34:03;;;;;;;9.55;2.42;;;17.30;99.90;;;;;;4984852;28;20491;-60
2022/07/24 03:36:29;;;;;;;5.85;2.47;;;17.20;99.90;;;;;;4995502;28;20554;-59
2022/07/24 03:38:54;;;;;;;4.28;1.90;;;17.20;99.90;;;;;;4992591;28;20073;-59
2022/07/24 03:41:20;;;;;;;3.63;2.05;;;17.20;99.90;;;;;;4988898;28;20023;-59
2022/07/24 03:43:46;;;;;;;6.05;2.13;;;17.20;99.90;;;;;;5034237;23;20378;-61
2022/07/24 03:46:11;;;;;;;7.38;2.38;;;17.10;99.90;;;;;;5022950;28;20473;-61
2022/07/24 03:48:37;;;;;;;2.67;1.70;;;17.10;99.90;;;;;;5003650;28;20516;-59
2022/07/24 03:51:02;;;;;;;3.97;1.90;;;17.10;99.90;;;;;;5010006;28;20033;-59
2022/07/24 03:53:28;;;;;;;3.67;1.80;;;17.10;99.90;;;;;;5021485;28;20567;-59
2022/07/24 03:55:54;;;;;;;3.75;2.20;;;17.20;99.90;;;;;;5022702;28;20104;-59
2022/07/24 03:58:19;;;;;;;6.28;1.98;;;17.20;99.90;;;;;;5008680;28;20133;-60
2022/07/24 04:00:45;;;;;;;3.42;1.70;;;17.20;99.90;;;;;;5005112;28;20160;-60
2022/07/24 04:03:10;;;;;;;4.55;2.08;;;17.20;99.90;;;;;;5011140;28;20036;-60
2022/07/24 04:05:36;;;;;;;6.70;1.80;;;17.20;99.90;;;;;;5015090;28;20116;-60
2022/07/24 04:08:02;;;;;;;1.90;1.70;;;17.20;99.90;;;;;;5010028;28;20112;-60
2022/07/24 04:10:28;;;;;;;3.65;2.00;;;17.30;99.90;;;;;;5008540;28;20030;-58
2022/07/24 04:12:53;;;;;;;6.22;1.92;;;17.20;99.90;;;;;;5013892;28;20037;-60
2022/07/24 04:15:19;;;;;;;4.28;2.15;;;17.20;99.90;;;;;;5016443;28;20447;-61
2022/07/24 04:17:45;;;;;;;4.03;1.90;;;17.20;99.90;;;;;;5011283;28;20108;-59
2022/07/24 04:20:11;;;;;;;7.05;2.35;;;17.20;99.90;;;;;;5012114;28;20076;-59
2022/07/24 04:22:38;;;;;;;5.10;2.05;;;17.20;99.90;;;;;;5014586;28;20041;-59
2022/07/24 04:25:05;;;;;;;6.22;2.13;;;17.20;99.90;;;;;;5012730;28;20029;-60
2022/07/24 04:27:31;;;;;;;5.32;2.03;;;17.10;99.90;;;;;;5015300;28;20026;-61
2022/07/24 04:30:00;;;;;;;3.55;1.92;;;17.10;99.90;;;;;;5012667;28;20038;-60
2022/07/24 04:32:27;;;;;;;4.53;1.70;;;17.10;99.90;;;;;;5021718;28;20033;-60
2022/07/24 04:34:52;;;;;;;3.10;1.90;;;17.10;99.90;;;;;;5014582;28;20029;-60
2022/07/24 04:37:18;;;;;;;4.75;2.25;;;17.20;99.90;;;;;;5022683;28;20477;-60
2022/07/24 04:39:44;;;;;;;6.13;1.77;;;17.20;99.90;;;;;;5012900;28;20128;-60
2022/07/24 04:42:09;;;;;;;4.18;2.17;;;17.20;99.90;;;;;;5014047;28;20030;-60
2022/07/24 04:44:35;;;;;;;3.08;2.20;;;17.30;99.90;;;;;;5016569;28;20567;-60
2022/07/24 04:47:01;;;;;;;5.63;1.90;;;17.30;99.90;;;;;;5013448;28;20095;-60
2022/07/24 04:49:26;;;;;;;3.67;1.77;;;17.30;99.90;;;;;;5019400;28;20025;-60
2022/07/24 04:51:52;;;;;;;2.70;1.95;;;17.50;99.90;;;;;;5014418;28;20033;-60
2022/07/24 04:54:18;;;;;;;4.47;1.75;;;17.40;99.90;;;;;;5019130;28;20026;-60
2022/07/24 04:56:44;;;;;;;3.30;1.70;;;17.50;99.90;;;;;;5018737;28;20117;-60
2022/07/24 04:59:09;;;;;;;3.88;2.22;;;17.50;99.90;;;;;;5020300;28;20026;-60
2022/07/24 05:01:35;;;;;;;3.63;1.60;;;17.60;99.90;;;;;;5021724;28;20548;-60
2022/07/24 05:04:01;;;;;;;3.03;1.63;;;17.60;99.90;;;;;;5021904;28;20040;-59
2022/07/24 05:06:27;;;;;;;5.63;1.92;;;17.60;99.90;;;;;;5017668;28;20028;-60
2022/07/24 05:08:52;;;;;;;2.38;1.63;;;17.70;99.90;;;;;;5011666;28;20065;-59
2022/07/24 05:11:18;;;;;;;3.63;1.60;;;17.60;99.90;;;;;;5012839;28;20105;-58
2022/07/24 05:13:44;;;;;;;3.85;1.67;;;17.60;99.90;;;;;;5020716;28;20048;-59
2022/07/24 05:16:09;;;;;;;1.98;1.42;;;17.60;99.90;;;;;;5017766;28;20057;-59
2022/07/24 05:18:35;;;;;;;5.63;1.90;;;17.70;99.90;;;;;;5025986;28;20074;-59
2022/07/24 05:21:01;;;;;;;5.40;2.45;;;17.70;99.90;;;;;;5021734;28;20018;-60
2022/07/24 05:23:27;;;;;;;4.78;1.65;;;17.70;99.90;;;;;;5016829;28;20026;-60
2022/07/24 05:25:53;;;;;;;3.20;1.63;;;17.80;99.90;;;;;;5009527;28;20025;-60
2022/07/24 05:28:19;;;;;;;3.00;1.50;;;17.80;99.90;;;;;;5018578;28;20048;-61
2022/07/24 05:30:45;;;;;;;5.30;1.88;;;17.80;99.90;;;;;;5016051;28;20033;-59
2022/07/24 05:33:10;;;;;;;2.30;1.30;;;17.90;99.90;;;;;;5019684;28;20034;-61
2022/07/24 05:35:36;;;;;;;5.53;1.73;;;18.00;99.90;;;;;;5026388;28;20026;-61
2022/07/24 05:38:02;;;;;;;3.45;1.50;;;18.00;99.90;;;;;;5019903;28;20493;-60
2022/07/24 05:40:28;;;;;;;7.15;1.73;;;18.00;99.90;;;;;;5025756;28;20477;-60
2022/07/24 05:42:53;;;;;;;4.10;1.90;;;18.10;99.90;;;;;;5011733;28;20046;-60
2022/07/24 05:45:19;;;;;;;3.03;1.63;;;18.10;99.90;;;;;;5019546;28;20619;-60
2022/07/24 05:47:45;;;;;;;2.55;1.50;;;18.20;99.90;;;;;;5024426;28;20033;-60
2022/07/24 05:50:12;;;;;;;4.38;1.73;;;18.20;99.90;;;;;;5024563;28;20018;-60
2022/07/24 05:52:39;;;;;;;2.15;1.63;;;18.30;99.90;;;;;;5019882;28;20042;-60
2022/07/24 05:55:05;;;;;;;2.85;1.75;;;18.30;99.90;;;;;;5024612;28;20033;-60
2022/07/24 05:57:31;;;;;;;4.10;1.60;;;18.30;99.90;;;;;;5016132;28;20037;-60
2022/07/24 05:59:57;;;;;;;4.47;2.00;;;18.40;99.90;;;;;;5022248;28;20485;-61
2022/07/24 06:02:23;;;;;;;1.90;1.50;;;18.40;99.90;;;;;;5021002;28;20038;-60
2022/07/24 06:04:48;;;;;;;3.65;1.65;;;18.40;99.90;;;;;;5021354;28;20025;-61
2022/07/24 06:07:14;;;;;;;1.70;1.35;;;18.50;99.90;;;;;;5013356;28;20466;-61
2022/07/24 06:09:40;;;;;;;3.30;1.25;;;18.60;99.90;;;;;;5010616;28;20489;-61
2022/07/24 06:12:06;;;;;;;5.88;1.80;;;18.70;99.90;;;;;;5010675;28;21130;-59
2022/07/24 06:14:32;;;;;;;2.95;1.48;;;18.80;99.90;;;;;;5020355;28;20075;-60
2022/07/24 06:16:58;;;;;;;5.10;1.50;;;18.90;99.90;;;;;;5014471;28;20030;-60
2022/07/24 06:19:24;;;;;;;4.65;2.00;;;19.00;99.90;;;;;;5022877;28;20088;-60
2022/07/24 06:21:50;;;;;;;4.40;1.88;;;19.00;99.90;;;;;;5021067;28;20108;-60
2022/07/24 06:24:16;;;;;;;4.32;1.75;;;19.10;99.90;;;;;;5024996;28;20079;-60
2022/07/24 06:26:42;;;;;;;4.45;1.42;;;19.10;99.90;;;;;;5015423;28;20133;-61
2022/07/24 06:29:07;;;;;;;2.50;1.60;;;19.10;99.90;;;;;;5023684;28;20071;-60
2022/07/24 06:31:33;;;;;;;3.42;1.63;;;19.10;99.90;;;;;;5019940;28;20493;-60
2022/07/24 06:33:59;;;;;;;3.00;1.35;;;19.00;99.90;;;;;;5021981;28;20388;-60
2022/07/24 06:36:24;;;;;;;3.72;1.77;;;19.00;99.90;;;;;;5010270;28;20030;-60
2022/07/24 06:38:50;;;;;;;3.05;1.40;;;18.90;99.90;;;;;;5021370;28;20069;-60
2022/07/24 06:41:16;;;;;;;2.13;1.20;;;18.90;99.90;;;;;;5018653;28;20037;-59
2022/07/24 06:43:42;;;;;;;3.08;1.67;;;18.90;99.90;;;;;;5010697;28;20042;-60
2022/07/24 06:46:07;;;;;;;4.25;1.75;;;19.00;99.90;;;;;;5016790;28;20021;-60
2022/07/24 06:48:33;;;;;;;3.83;1.77;;;19.00;99.90;;;;;;5010730;28;20022;-61
2022/07/24 06:50:59;;;;;;;4.82;1.70;;;19.00;99.90;;;;;;5018654;28;20101;-61
2022/07/24 06:53:24;;;;;;;2.65;1.65;;;19.10;99.90;;;;;;5012958;28;20030;-61
2022/07/24 06:55:53;;;;;;;3.30;1.60;;;19.10;99.90;;;;;;5024011;28;20491;-60
2022/07/24 06:58:19;;;;;;;2.88;1.55;;;19.10;99.90;;;;;;5013246;28;20537;-60
2022/07/24 07:00:46;;;;;;;5.82;2.28;;;19.10;99.90;;;;;;5006359;28;20065;-60
2022/07/24 07:03:12;;;;;;;2.22;1.25;;;19.10;99.90;;;;;;5022781;28;20484;-60
2022/07/24 07:05:38;;;;;;;2.45;1.33;;;19.20;99.90;;;;;;5015326;28;20061;-60
2022/07/24 07:08:03;;;;;;;2.75;1.33;;;19.10;99.90;;;;;;5010707;28;20116;-61
2022/07/24 07:10:29;;;;;;;2.20;1.98;;;19.20;99.90;;;;;;5014815;28;20059;-59
2022/07/24 07:12:55;;;;;;;3.50;1.58;;;19.30;99.90;;;;;;5011237;28;20041;-60
2022/07/24 07:15:21;;;;;;;5.60;1.60;;;19.30;99.90;;;;;;5013682;28;20021;-60
2022/07/24 07:17:46;;;;;;;2.38;1.38;;;19.30;99.90;;;;;;5012954;28;20046;-60
2022/07/24 07:20:15;;;;;;;4.22;1.83;;;19.30;99.90;;;;;;5008958;28;20571;-61
2022/07/24 07:22:41;;;;;;;2.28;1.50;;;19.30;99.90;;;;;;5010615;28;20030;-61
2022/07/24 07:25:07;;;;;;;3.75;1.60;;;19.30;99.90;;;;;;5006858;28;20049;-61
2022/07/24 07:27:34;;;;;;;4.80;1.58;;;19.40;99.90;;;;;;5008922;28;20038;-61
2022/07/24 07:29:59;;;;;;;1.65;1.30;;;19.30;99.90;;;;;;5013977;28;20488;-60
2022/07/24 07:32:25;;;;;;;2.28;1.33;;;19.30;99.90;;;;;;5014827;28;20124;-61
2022/07/24 07:34:50;;;;;;;6.82;1.40;;;19.20;99.90;;;;;;5012217;28;20034;-61
2022/07/24 07:37:16;;;;;;;1.70;1.58;;;19.20;99.90;;;;;;5009771;28;20034;-61
2022/07/24 07:39:42;;;;;;;3.13;1.75;;;19.20;99.90;;;;;;5014392;28;20049;-61
2022/07/24 07:42:07;;;;;;;2.15;1.55;;;19.20;99.90;;;;;;5010201;28;20038;-61
2022/07/24 07:44:33;;;;;;;1.25;1.15;;;19.30;99.90;;;;;;5008115;28;20385;-60
2022/07/24 07:46:59;;;;;;;2.50;1.70;;;19.40;99.90;;;;;;5009749;28;20026;-60
2022/07/24 07:49:24;;;;;;;3.80;1.67;;;19.50;99.90;;;;;;5012798;28;20472;-60
2022/07/24 07:51:51;;;;;;;6.25;1.67;;;19.50;99.90;;;;;;5002671;28;20478;-60
2022/07/24 07:54:18;;;;;;;4.50;1.27;;;19.60;99.90;;;;;;5006573;28;20482;-60
2022/07/24 07:56:43;;;;;;;2.55;1.67;;;19.60;99.90;;;;;;5007432;28;20045;-60
2022/07/24 07:59:09;;;;;;;2.63;1.30;;;19.70;99.90;;;;;;5018222;28;20384;-60
2022/07/24 08:01:35;;;;;;;3.15;1.35;;;19.70;99.90;;;;;;5010945;28;20049;-60
2022/07/24 08:04:01;;;;;;;3.65;1.48;;;19.80;99.90;;;;;;5005510;28;20034;-61
2022/07/24 08:06:27;;;;;;;1.67;1.48;;;19.90;99.90;;;;;;5016190;28;20025;-62
2022/07/24 08:08:53;;;;;;;2.10;1.30;;;19.90;99.90;;;;;;5008571;28;20124;-60
2022/07/24 08:11:19;;;;;;;1.92;1.17;;;19.90;99.90;;;;;;5010482;28;20117;-60
2022/07/24 08:13:44;;;;;;;4.53;1.80;;;19.90;99.90;;;;;;5005015;28;20038;-60
2022/07/24 08:16:10;;;;;;;2.88;1.20;;;20.00;99.90;;;;;;5006426;28;20053;-60
2022/07/24 08:18:36;;;;;;;3.05;1.60;;;20.10;99.90;;;;;;5010392;28;20026;-61
2022/07/24 08:21:02;;;;;;;2.28;1.33;;;20.30;99.90;;;;;;5013767;28;20026;-61
2022/07/24 08:23:28;;;;;;;4.30;1.60;;;20.50;99.90;;;;;;5013608;28;20057;-60
2022/07/24 08:25:53;;;;;;;2.03;1.25;;;20.60;99.90;;;;;;5012629;28;20036;-60
2022/07/24 08:28:21;;;;;;;3.25;1.35;;;20.60;99.90;;;;;;5011467;28;20366;-60
2022/07/24 08:30:47;;;;;;;1.77;1.67;;;20.70;99.90;;;;;;5015949;28;20040;-60
2022/07/24 08:33:12;;;;;;;2.67;1.70;;;20.60;99.90;;;;;;5019159;28;20029;-60
2022/07/24 08:35:38;;;;;;;3.33;1.35;;;20.70;99.90;;;;;;5022816;28;20036;-60
2022/07/24 08:38:05;;;;;;;2.47;1.23;;;20.60;99.90;;;;;;5010587;28;20026;-61
2022/07/24 08:40:36;;;;;;;1.83;1.30;;;20.60;99.90;;;;;;5015243;28;20040;-60
2022/07/24 08:43:02;;;;;;;;;;;20.70;99.90;;;;;;4967583;28;1183338;-60
2022/07/24 08:45:29;;;;;;;2.17;1.45;;;20.70;99.90;;;;;;5014783;28;19991;-61
2022/07/24 08:47:56;;;;;;;2.60;1.50;;;20.80;99.90;;;;;;5012754;28;20525;-60
2022/07/24 08:50:22;;;;;;;4.55;2.78;;;20.80;99.90;;;;;;5023580;28;20044;-60
2022/07/24 08:52:48;;;;;;;3.67;1.70;;;20.70;99.90;;;;;;5011832;28;20956;-60
2022/07/24 08:55:14;;;;;;;2.63;1.52;;;20.70;99.90;;;;;;5018280;28;20029;-60
2022/07/24 08:57:41;;;;;;;2.67;1.60;;;20.60;99.90;;;;;;5014637;28;20515;-61
2022/07/24 09:00:07;;;;;;;1.85;1.45;;;20.60;99.90;;;;;;5022415;28;20104;-60
2022/07/24 09:02:33;;;;;;;1.45;1.25;;;20.80;99.90;;;;;;5012107;28;20044;-61
2022/07/24 09:05:00;;;;;;;2.53;1.35;;;20.80;99.90;;;;;;5017756;28;20030;-61
2022/07/24 09:07:29;;;;;;;5.25;1.58;;;20.90;99.90;;;;;;5015894;28;20077;-60
2022/07/24 09:10:12;;;;;;;3.70;1.30;;;20.90;99.90;;;;;;5003015;28;20026;-61
2022/07/24 09:12:45;;;;;;;2.75;1.13;;;20.80;99.90;;;;;;5014006;28;20132;-61
2022/07/24 09:15:26;;;;;;;2.97;1.52;;;21.00;99.90;;;;;;5007599;28;20026;-61
2022/07/24 09:17:54;;;;;;;1.80;1.30;;;21.10;99.90;;;;;;5007539;28;20397;-61
2022/07/24 09:20:22;;;;;;;2.50;1.20;;;21.20;99.90;;;;;;5026049;28;20041;-61
2022/07/24 09:22:48;;;;;;;4.57;2.03;;;21.20;99.90;;;;;;5016384;28;20366;-61
2022/07/24 09:25:18;;;;;;;2.95;1.30;;;21.30;99.90;;;;;;5020900;28;20085;-61
2022/07/24 09:27:52;;;;;;;1.95;1.00;;;21.30;99.90;;;;;;5017128;28;20050;-61
2022/07/24 09:30:38;;;;;;;2.78;1.23;;;21.30;99.90;;;;;;5003158;28;20034;-61
2022/07/24 09:33:10;;;;;;;2.67;1.58;;;21.40;99.90;;;;;;5016995;28;20480;-60
2022/07/24 09:35:38;;;;;;;2.50;1.10;;;21.40;99.90;;;;;;5014944;28;20021;-60
2022/07/24 09:38:06;;;;;;;3.60;1.20;;;21.30;99.90;;;;;;5019119;28;20038;-60
2022/07/24 09:40:43;;;;;;;2.35;1.20;;;21.40;99.90;;;;;;5015930;28;20117;-60
2022/07/24 09:43:18;;;;;;;3.67;1.38;;;21.30;99.90;;;;;;5016021;28;20038;-61
2022/07/24 09:45:53;;;;;;;1.30;1.17;;;21.40;99.90;;;;;;5004965;28;20089;-60
2022/07/24 09:48:22;;;;;;;2.05;1.38;;;21.40;99.90;;;;;;5014918;28;20034;-59
2022/07/24 09:50:52;;;;;;;2.75;1.20;;;21.30;99.90;;;;;;5018829;28;20036;-59
2022/07/24 09:53:24;;;;;;;1.95;1.00;;;21.40;99.90;;;;;;5015747;28;20092;-59
2022/07/24 09:56:11;;;;;;;2.10;1.10;;;21.40;99.90;;;;;;5020359;28;20117;-59
2022/07/24 09:58:57;;;;;;;2.30;1.35;;;21.40;99.90;;;;;;5014835;28;20029;-59
2022/07/24 10:01:25;;;;;;;2.03;1.27;;;21.50;99.90;;;;;;5009658;28;20037;-59
2022/07/24 10:03:53;;;;;;;2.25;1.40;;;21.70;99.90;;;;;;5011662;28;20024;-60
2022/07/24 10:06:21;;;;;;;2.20;1.25;;;21.90;99.90;;;;;;5004550;28;20038;-60
2022/07/24 10:08:50;;;;;;;2.45;1.15;;;22.00;99.90;;;;;;5011194;28;20375;-60
2022/07/24 10:11:17;;;;;;;2.25;1.17;;;21.90;99.90;;;;;;5014653;28;20136;-60
2022/07/24 10:13:44;;;;;;;1.45;0.95;;;21.80;99.90;;;;;;5023116;28;20434;-60
2022/07/24 10:16:15;;;;;;;4.18;0.90;;;21.70;99.90;;;;;;5018563;28;20390;-59
2022/07/24 10:18:41;;;;;;;1.52;1.00;;;21.70;99.90;;;;;;5013523;28;20431;-59
2022/07/24 10:21:10;;;;;;;2.90;1.20;;;21.70;99.90;;;;;;5019869;28;20033;-60
2022/07/24 10:24:10;;;;;;;2.80;1.38;;;21.70;99.90;;;;;;5024016;28;20030;-59
2022/07/24 10:26:45;;;;;;;3.22;1.23;;;21.90;99.90;;;;;;5013530;28;20080;-58
2022/07/24 10:29:10;;;;;;;1.92;1.33;;;21.90;99.90;;;;;;5023138;28;20450;-59
2022/07/24 10:31:42;;;;;;;1.20;1.10;;;22.10;99.90;;;;;;5019365;28;20057;-59
2022/07/24 10:34:38;;;;;;;1.67;1.10;;;22.00;99.90;;;;;;5024185;28;20037;-60
2022/07/24 10:37:20;;;;;;;1.48;1.02;;;22.20;99.90;;;;;;5006705;28;20030;-59
2022/07/24 10:39:48;;;;;;;;;;;22.20;99.90;;;;;;5014935;28;20053;-59
2022/07/24 10:42:14;;;;;;;6.28;1.25;;;22.30;99.90;;;;;;5018991;28;19921;-59
2022/07/24 10:44:40;;;;;;;3.08;1.10;;;22.30;99.90;;;;;;5017271;28;20030;-60
2022/07/24 10:47:15;;;;;;;1.60;0.80;;;22.50;99.90;;;;;;5015033;28;20120;-59
2022/07/24 10:49:43;;;;;;;2.47;1.20;;;22.60;99.90;;;;;;5007893;28;20037;-59
2022/07/24 10:52:21;;;;;;;1.83;0.77;;;22.70;99.90;;;;;;5026968;28;20459;-60
2022/07/24 10:54:47;;;;;;;2.65;1.33;;;22.60;99.90;;;;;;5022607;28;20057;-59
2022/07/24 10:57:13;;;;;;;1.27;1.15;;;22.80;99.90;;;;;;5020886;28;20049;-59
2022/07/24 10:59:42;;;;;;;2.17;0.80;;;22.80;99.90;;;;;;5026458;28;20064;-58
2022/07/24 11:02:29;;;;;;;3.30;1.00;;;22.90;99.90;;;;;;5023479;28;20018;-59
2022/07/24 11:05:22;;;;;;;3.72;1.20;;;22.80;99.90;;;;;;5009485;28;20057;-59
2022/07/24 11:08:13;;;;;;;2.55;0.90;;;23.00;99.90;;;;;;5002966;28;20617;-59
2022/07/24 11:10:45;;;;;;;2.90;0.90;;;23.40;99.90;;;;;;5017405;28;20108;-59
2022/07/24 11:13:37;;;;;;;1.10;0.80;;;23.90;99.90;;;;;;5015899;28;20084;-59
2022/07/24 11:16:15;;;;;;;2.17;1.10;;;24.60;99.90;;;;;;5024381;28;20120;-60
2022/07/24 11:18:50;;;;;;;1.58;0.70;;;24.90;99.90;;;;;;5024793;28;20087;-59
2022/07/24 11:21:36;;;;;;;3.80;0.82;;;24.90;99.90;;;;;;5016004;28;20036;-59
2022/07/24 11:24:14;;;;;;;0.90;0.90;;;24.50;99.90;;;;;;5005787;28;20378;-60
2022/07/24 11:26:40;;;;;;;2.05;0.90;;;24.40;99.90;;;;;;5008871;28;20033;-59
2022/07/24 11:29:21;;;;;;;1.08;0.98;;;24.60;99.90;;;;;;5022222;28;20116;-59
2022/07/24 11:31:48;;;;;;;3.83;1.13;;;24.70;99.90;;;;;;5005949;28;20382;-59
2022/07/24 11:34:14;;;;;;;3.75;0.73;;;25.00;99.90;;;;;;5026031;28;20551;-59
2022/07/24 11:36:42;;;;;;;3.30;1.10;;;24.90;99.90;;;;;;5017725;28;20034;-59
2022/07/24 11:39:08;;;;;;;3.42;1.15;;;25.00;99.90;;;;;;5023276;28;20061;-60
2022/07/24 11:41:52;;;;;;;3.10;1.00;;;25.40;99.90;;;;;;5014708;28;20033;-60
2022/07/24 11:44:25;;;;;;;1.42;0.88;;;25.70;99.90;;;;;;5010538;28;20129;-60
2022/07/24 11:46:51;;;;;;;2.30;0.90;;;26.40;99.90;;;;;;5021789;28;20063;-60
2022/07/24 11:49:17;;;;;;;4.35;0.90;;;26.50;99.90;;;;;;5021400;28;20056;-60
2022/07/24 11:51:47;;;;;;;2.78;0.82;;;26.50;99.90;;;;;;5013240;28;20022;-59
2022/07/24 11:54:19;;;;;;;1.90;0.60;;;25.90;99.90;;;;;;5022549;28;20068;-61
2022/07/24 11:56:45;;;;;;;1.75;0.90;;;26.20;99.90;;;;;;5021925;28;20079;-59
2022/07/24 11:59:28;;;;;;;3.42;1.20;;;26.50;99.90;;;;;;5016860;28;20026;-59
2022/07/24 12:02:09;;;;;;;3.35;0.75;;;26.80;99.40;;;;;;5007015;28;20047;-59
2022/07/24 12:04:38;;;;;;;1.40;0.98;;;27.00;97.20;;;;;;5017027;28;20039;-59
2022/07/24 12:07:08;;;;;;;1.95;0.88;;;26.80;96.20;;;;;;5021671;28;20511;-60
2022/07/24 12:09:45;;;;;;;0.95;0.77;;;27.10;98.00;;;;;;5008294;28;20034;-59
2022/07/24 12:12:38;;;;;;;4.97;1.10;;;27.60;96.80;;;;;;5020537;28;20052;-59
2022/07/24 12:15:10;;;;;;;2.05;1.27;;;27.60;96.40;;;;;;5001854;28;20073;-59
2022/07/24 12:18:04;;;;;;;2.17;0.80;;;27.20;96.50;;;;;;5011186;28;20036;-59
2022/07/24 12:20:42;;;;;;;2.40;0.77;;;26.90;97.50;;;;;;5012812;28;20018;-59
2022/07/24 12:23:09;;;;;;;0.98;0.73;;;26.90;95.90;;;;;;5014520;28;20076;-59
2022/07/24 12:25:36;;;;;;;2.88;1.50;;;26.90;97.00;;;;;;5015381;28;20025;-59
2022/07/24 12:28:11;;;;;;;2.00;0.90;;;27.00;96.00;;;;;;5013841;28;20033;-59
2022/07/24 12:30:39;;;;;;;3.33;1.60;;;26.60;95.60;;;;;;5020984;28;20033;-59
2022/07/24 12:33:09;;;;;;;0.70;0.70;;;26.70;95.80;;;;;;5009695;28;20187;-59
2022/07/24 12:35:52;;;;;;;1.75;0.95;;;26.90;94.30;;;;;;5022421;28;20028;-58
2022/07/24 12:38:31;;;;;;;1.33;0.70;;;27.00;93.90;;;;;;5027849;28;20026;-59
2022/07/24 12:41:08;;;;;;;1.35;0.80;;;27.20;94.20;;;;;;5022672;28;20025;-59
2022/07/24 12:44:04;;;;;;;2.00;0.80;;;28.00;92.00;;;;;;5017643;28;20133;-60
2022/07/24 12:46:31;;;;;;;2.92;1.00;;;27.90;90.50;;;;;;5021658;28;20045;-58
2022/07/24 12:49:02;;;;;;;0.90;0.80;;;27.60;91.30;;;;;;5022388;28;20076;-60
2022/07/24 12:51:48;;;;;;;1.63;0.77;;;28.00;90.60;;;;;;5016331;28;20127;-60
2022/07/24 12:54:29;;;;;;;0.88;0.68;;;27.20;91.60;;;;;;5010403;28;20044;-60